Terminal Aerodrome Forecast
Issued by NWS Mt. Holly, NJ

Current Version | Previous Version | Text Only | Print | Product List | Glossary On
Versions: 1 2 3 4 5 6 7 8 9 10 11 12 13 14 15 16 17 18 19 20 21 22
466
FTUS41 KPHI 171720
TAFRDG
TAF
KRDG 171720Z 1718/1818 18007KT P6SM SKC
     FM172000 19004KT P6SM SCT070 BKN250
     FM172300 16005KT P6SM BKN070 OVC100
     FM180400 16003KT P6SM OVC040 PROB30 1804/1808 3SM SHRA OVC025
     FM180800 VRB02KT 3SM SHRA OVC025 PROB30 1808/1812 2SM -TSRA
      BKN015CB
     FM181200 VRB03KT 2SM SHRA OVC008 PROB30 1812/1815 1SM TSRA
      BKN008CB
     FM181500 20005KT P6SM OVC010=

USA.gov is the U.S. government's official web portal to all federal, state and local government web resources and services.